sensor_id;sensor_type;location;lat;lon;timestamp;P1;durP1;ratioP1;P2;durP2;ratioP2
9409;SDS011;4744;52.576;13.568;2023-02-15T00:02:00;24.33;;;18.45;;
9409;SDS011;4744;52.576;13.568;2023-02-15T00:04:27;22.42;;;16.80;;
9409;SDS011;4744;52.576;13.568;2023-02-15T00:07:11;24.80;;;17.77;;
9409;SDS011;4744;52.576;13.568;2023-02-15T00:09:39;22.92;;;17.48;;
9409;SDS011;4744;52.576;13.568;2023-02-15T00:12:06;26.38;;;17.23;;
9409;SDS011;4744;52.576;13.568;2023-02-15T00:14:33;22.08;;;17.63;;
9409;SDS011;4744;52.576;13.568;2023-02-15T00:17:01;24.48;;;18.38;;
9409;SDS011;4744;52.576;13.568;2023-02-15T00:19:28;24.90;;;17.88;;
9409;SDS011;4744;52.576;13.568;2023-02-15T00:21:55;23.35;;;17.67;;
9409;SDS011;4744;52.576;13.568;2023-02-15T00:24:22;21.63;;;16.98;;
9409;SDS011;4744;52.576;13.568;2023-02-15T00:26:49;22.25;;;17.65;;
9409;SDS011;4744;52.576;13.568;2023-02-15T00:29:17;21.02;;;16.95;;
9409;SDS011;4744;52.576;13.568;2023-02-15T00:31:45;21.60;;;17.23;;
9409;SDS011;4744;52.576;13.568;2023-02-15T00:34:14;26.83;;;18.17;;
9409;SDS011;4744;52.576;13.568;2023-02-15T00:36:42;21.20;;;16.40;;
9409;SDS011;4744;52.576;13.568;2023-02-15T00:39:09;19.83;;;15.63;;
9409;SDS011;4744;52.576;13.568;2023-02-15T00:41:37;20.05;;;15.82;;
9409;SDS011;4744;52.576;13.568;2023-02-15T00:44:04;19.15;;;15.55;;
9409;SDS011;4744;52.576;13.568;2023-02-15T00:46:32;18.85;;;14.65;;
9409;SDS011;4744;52.576;13.568;2023-02-15T00:48:59;16.05;;;13.30;;
9409;SDS011;4744;52.576;13.568;2023-02-15T00:51:28;16.67;;;13.68;;
9409;SDS011;4744;52.576;13.568;2023-02-15T00:53:55;19.83;;;15.02;;
9409;SDS011;4744;52.576;13.568;2023-02-15T00:56:22;18.88;;;14.18;;
9409;SDS011;4744;52.576;13.568;2023-02-15T00:58:49;18.25;;;14.05;;
9409;SDS011;4744;52.576;13.568;2023-02-15T01:01:17;17.23;;;13.02;;
9409;SDS011;4744;52.576;13.568;2023-02-15T01:03:45;18.15;;;14.63;;
9409;SDS011;4744;52.576;13.568;2023-02-15T01:06:13;19.48;;;14.90;;
9409;SDS011;4744;52.576;13.568;2023-02-15T01:08:42;17.10;;;14.10;;
9409;SDS011;4744;52.576;13.568;2023-02-15T01:11:11;15.60;;;13.18;;
9409;SDS011;4744;52.576;13.568;2023-02-15T01:13:39;17.42;;;14.15;;
9409;SDS011;4744;52.576;13.568;2023-02-15T01:16:06;19.15;;;14.80;;
9409;SDS011;4744;52.576;13.568;2023-02-15T01:18:33;18.65;;;14.82;;
9409;SDS011;4744;52.576;13.568;2023-02-15T01:21:08;19.20;;;14.90;;
9409;SDS011;4744;52.576;13.568;2023-02-15T01:23:36;19.42;;;15.15;;
9409;SDS011;4744;52.576;13.568;2023-02-15T01:26:04;18.05;;;14.20;;
9409;SDS011;4744;52.576;13.568;2023-02-15T01:28:31;21.33;;;16.10;;
9409;SDS011;4744;52.576;13.568;2023-02-15T01:30:58;21.00;;;15.02;;
9409;SDS011;4744;52.576;13.568;2023-02-15T01:33:25;21.40;;;15.75;;
9409;SDS011;4744;52.576;13.568;2023-02-15T01:35:55;18.55;;;14.95;;
9409;SDS011;4744;52.576;13.568;2023-02-15T01:38:23;21.40;;;15.77;;
9409;SDS011;4744;52.576;13.568;2023-02-15T01:40:50;20.98;;;16.13;;
9409;SDS011;4744;52.576;13.568;2023-02-15T01:43:19;19.55;;;15.10;;
9409;SDS011;4744;52.576;13.568;2023-02-15T01:45:46;20.88;;;15.40;;
9409;SDS011;4744;52.576;13.568;2023-02-15T01:48:18;22.30;;;16.38;;
9409;SDS011;4744;52.576;13.568;2023-02-15T01:50:48;24.52;;;17.67;;
9409;SDS011;4744;52.576;13.568;2023-02-15T01:53:20;22.50;;;16.88;;
9409;SDS011;4744;52.576;13.568;2023-02-15T01:55:50;24.10;;;18.02;;
9409;SDS011;4744;52.576;13.568;2023-02-15T01:58:23;24.98;;;17.20;;
9409;SDS011;4744;52.576;13.568;2023-02-15T02:00:52;24.25;;;18.23;;
9409;SDS011;4744;52.576;13.568;2023-02-15T02:03:20;24.73;;;17.63;;
9409;SDS011;4744;52.576;13.568;2023-02-15T02:05:56;26.52;;;18.33;;
9409;SDS011;4744;52.576;13.568;2023-02-15T02:08:23;25.15;;;18.33;;
9409;SDS011;4744;52.576;13.568;2023-02-15T02:10:50;31.40;;;20.23;;
9409;SDS011;4744;52.576;13.568;2023-02-15T02:13:17;30.50;;;20.08;;
9409;SDS011;4744;52.576;13.568;2023-02-15T02:15:47;30.33;;;20.25;;
9409;SDS011;4744;52.576;13.568;2023-02-15T02:18:23;30.20;;;19.77;;
9409;SDS011;4744;52.576;13.568;2023-02-15T02:21:13;27.08;;;18.75;;
9409;SDS011;4744;52.576;13.568;2023-02-15T02:24:11;28.50;;;19.45;;
9409;SDS011;4744;52.576;13.568;2023-02-15T02:35:48;31.35;;;19.23;;
9409;SDS011;4744;52.576;13.568;2023-02-15T02:38:23;30.17;;;19.75;;
9409;SDS011;4744;52.576;13.568;2023-02-15T02:40:59;29.10;;;19.35;;
9409;SDS011;4744;52.576;13.568;2023-02-15T02:43:36;28.38;;;19.30;;
9409;SDS011;4744;52.576;13.568;2023-02-15T02:46:10;26.58;;;18.20;;
9409;SDS011;4744;52.576;13.568;2023-02-15T02:48:45;27.00;;;17.90;;
9409;SDS011;4744;52.576;13.568;2023-02-15T02:51:13;28.33;;;18.55;;
9409;SDS011;4744;52.576;13.568;2023-02-15T02:53:46;29.83;;;18.73;;
9409;SDS011;4744;52.576;13.568;2023-02-15T02:56:18;30.58;;;19.55;;
9409;SDS011;4744;52.576;13.568;2023-02-15T02:58:48;28.75;;;19.52;;
9409;SDS011;4744;52.576;13.568;2023-02-15T03:01:22;31.00;;;19.08;;
9409;SDS011;4744;52.576;13.568;2023-02-15T03:03:54;29.60;;;19.20;;
9409;SDS011;4744;52.576;13.568;2023-02-15T03:06:27;31.52;;;18.75;;
9409;SDS011;4744;52.576;13.568;2023-02-15T03:09:01;31.48;;;19.75;;
9409;SDS011;4744;52.576;13.568;2023-02-15T03:11:32;33.15;;;20.05;;
9409;SDS011;4744;52.576;13.568;2023-02-15T03:13:59;30.70;;;19.35;;
9409;SDS011;4744;52.576;13.568;2023-02-15T03:16:26;31.13;;;18.75;;
9409;SDS011;4744;52.576;13.568;2023-02-15T03:18:57;32.17;;;19.88;;
9409;SDS011;4744;52.576;13.568;2023-02-15T03:21:30;31.55;;;19.38;;
9409;SDS011;4744;52.576;13.568;2023-02-15T03:24:00;30.13;;;19.20;;
9409;SDS011;4744;52.576;13.568;2023-02-15T03:26:33;37.33;;;22.08;;
9409;SDS011;4744;52.576;13.568;2023-02-15T03:29:02;36.13;;;22.33;;
9409;SDS011;4744;52.576;13.568;2023-02-15T03:31:32;41.63;;;22.92;;
9409;SDS011;4744;52.576;13.568;2023-02-15T03:34:06;38.20;;;21.70;;
9409;SDS011;4744;52.576;13.568;2023-02-15T03:36:38;34.73;;;21.60;;
9409;SDS011;4744;52.576;13.568;2023-02-15T03:39:13;36.33;;;21.47;;
9409;SDS011;4744;52.576;13.568;2023-02-15T03:41:48;39.07;;;21.90;;
9409;SDS011;4744;52.576;13.568;2023-02-15T03:44:23;34.33;;;20.37;;
9409;SDS011;4744;52.576;13.568;2023-02-15T03:46:56;38.63;;;22.40;;
9409;SDS011;4744;52.576;13.568;2023-02-15T03:49:30;33.53;;;20.70;;
9409;SDS011;4744;52.576;13.568;2023-02-15T03:52:03;36.40;;;21.37;;
9409;SDS011;4744;52.576;13.568;2023-02-15T03:54:32;39.90;;;21.27;;
9409;SDS011;4744;52.576;13.568;2023-02-15T03:57:18;35.50;;;21.93;;
9409;SDS011;4744;52.576;13.568;2023-02-15T04:00:08;36.63;;;20.63;;
9409;SDS011;4744;52.576;13.568;2023-02-15T04:02:58;37.20;;;22.03;;
9409;SDS011;4744;52.576;13.568;2023-02-15T04:05:36;42.53;;;23.07;;
9409;SDS011;4744;52.576;13.568;2023-02-15T04:08:03;37.50;;;22.27;;
9409;SDS011;4744;52.576;13.568;2023-02-15T04:10:30;40.33;;;22.63;;
9409;SDS011;4744;52.576;13.568;2023-02-15T04:13:15;37.80;;;20.90;;
9409;SDS011;4744;52.576;13.568;2023-02-15T04:15:41;37.97;;;21.90;;
9409;SDS011;4744;52.576;13.568;2023-02-15T04:18:26;37.63;;;21.67;;
9409;SDS011;4744;52.576;13.568;2023-02-15T04:21:11;37.65;;;21.85;;
9409;SDS011;4744;52.576;13.568;2023-02-15T04:23:56;36.33;;;21.93;;
9409;SDS011;4744;52.576;13.568;2023-02-15T04:26:40;37.70;;;21.73;;
9409;SDS011;4744;52.576;13.568;2023-02-15T04:29:07;37.53;;;21.97;;
9409;SDS011;4744;52.576;13.568;2023-02-15T04:31:34;36.03;;;21.77;;
9409;SDS011;4744;52.576;13.568;2023-02-15T04:34:01;36.90;;;21.93;;
9409;SDS011;4744;52.576;13.568;2023-02-15T04:36:29;37.40;;;22.30;;
9409;SDS011;4744;52.576;13.568;2023-02-15T04:38:56;37.83;;;21.48;;
9409;SDS011;4744;52.576;13.568;2023-02-15T04:41:23;40.10;;;22.73;;
9409;SDS011;4744;52.576;13.568;2023-02-15T04:43:50;39.13;;;23.30;;
9409;SDS011;4744;52.576;13.568;2023-02-15T04:46:17;36.00;;;22.03;;
9409;SDS011;4744;52.576;13.568;2023-02-15T04:48:44;38.97;;;22.50;;
9409;SDS011;4744;52.576;13.568;2023-02-15T04:51:11;40.07;;;23.03;;
9409;SDS011;4744;52.576;13.568;2023-02-15T04:53:39;41.10;;;22.57;;
9409;SDS011;4744;52.576;13.568;2023-02-15T04:56:06;40.93;;;22.87;;
9409;SDS011;4744;52.576;13.568;2023-02-15T04:58:33;35.43;;;20.60;;
9409;SDS011;4744;52.576;13.568;2023-02-15T05:01:00;38.87;;;23.43;;
9409;SDS011;4744;52.576;13.568;2023-02-15T05:03:27;42.10;;;23.00;;
9409;SDS011;4744;52.576;13.568;2023-02-15T05:05:54;36.67;;;21.90;;
9409;SDS011;4744;52.576;13.568;2023-02-15T05:08:21;37.53;;;21.37;;
9409;SDS011;4744;52.576;13.568;2023-02-15T05:10:49;39.47;;;22.70;;
9409;SDS011;4744;52.576;13.568;2023-02-15T05:13:16;38.90;;;22.87;;
9409;SDS011;4744;52.576;13.568;2023-02-15T05:15:46;37.77;;;23.37;;
9409;SDS011;4744;52.576;13.568;2023-02-15T05:18:14;41.70;;;24.30;;
9409;SDS011;4744;52.576;13.568;2023-02-15T05:20:41;40.63;;;24.10;;
9409;SDS011;4744;52.576;13.568;2023-02-15T05:23:08;40.43;;;24.20;;
9409;SDS011;4744;52.576;13.568;2023-02-15T05:25:35;40.50;;;22.90;;
9409;SDS011;4744;52.576;13.568;2023-02-15T05:28:21;40.30;;;23.43;;
9409;SDS011;4744;52.576;13.568;2023-02-15T05:30:48;39.87;;;23.60;;
9409;SDS011;4744;52.576;13.568;2023-02-15T05:33:16;39.67;;;23.30;;
9409;SDS011;4744;52.576;13.568;2023-02-15T05:35:43;37.47;;;21.70;;
9409;SDS011;4744;52.576;13.568;2023-02-15T05:38:10;37.90;;;22.17;;
9409;SDS011;4744;52.576;13.568;2023-02-15T05:40:37;36.57;;;21.60;;
9409;SDS011;4744;52.576;13.568;2023-02-15T05:43:04;39.20;;;22.83;;
9409;SDS011;4744;52.576;13.568;2023-02-15T05:45:33;38.73;;;22.53;;
9409;SDS011;4744;52.576;13.568;2023-02-15T05:48:00;41.90;;;24.07;;
9409;SDS011;4744;52.576;13.568;2023-02-15T05:50:26;43.27;;;24.37;;
9409;SDS011;4744;52.576;13.568;2023-02-15T05:52:53;37.63;;;22.60;;
9409;SDS011;4744;52.576;13.568;2023-02-15T05:55:20;40.17;;;23.67;;
9409;SDS011;4744;52.576;13.568;2023-02-15T05:57:48;43.87;;;25.27;;
9409;SDS011;4744;52.576;13.568;2023-02-15T06:00:15;42.57;;;24.67;;
9409;SDS011;4744;52.576;13.568;2023-02-15T06:02:43;39.90;;;24.30;;
9409;SDS011;4744;52.576;13.568;2023-02-15T06:05:10;41.73;;;24.23;;
9409;SDS011;4744;52.576;13.568;2023-02-15T06:07:37;42.30;;;25.13;;
9409;SDS011;4744;52.576;13.568;2023-02-15T06:10:05;41.37;;;24.87;;
9409;SDS011;4744;52.576;13.568;2023-02-15T06:12:32;40.17;;;24.17;;
9409;SDS011;4744;52.576;13.568;2023-02-15T06:14:59;42.60;;;25.37;;
9409;SDS011;4744;52.576;13.568;2023-02-15T06:17:26;39.40;;;24.60;;
9409;SDS011;4744;52.576;13.568;2023-02-15T06:19:54;43.73;;;24.13;;
9409;SDS011;4744;52.576;13.568;2023-02-15T06:22:22;44.27;;;25.43;;
9409;SDS011;4744;52.576;13.568;2023-02-15T06:24:49;45.50;;;26.53;;
9409;SDS011;4744;52.576;13.568;2023-02-15T06:27:15;46.23;;;26.13;;
9409;SDS011;4744;52.576;13.568;2023-02-15T06:29:42;45.63;;;26.20;;
9409;SDS011;4744;52.576;13.568;2023-02-15T06:32:09;50.47;;;27.40;;
9409;SDS011;4744;52.576;13.568;2023-02-15T06:34:36;45.53;;;25.83;;
9409;SDS011;4744;52.576;13.568;2023-02-15T06:37:04;50.67;;;28.23;;
9409;SDS011;4744;52.576;13.568;2023-02-15T06:39:33;46.40;;;26.17;;
9409;SDS011;4744;52.576;13.568;2023-02-15T06:42:00;48.30;;;27.03;;
9409;SDS011;4744;52.576;13.568;2023-02-15T06:44:27;54.80;;;27.70;;
9409;SDS011;4744;52.576;13.568;2023-02-15T06:46:53;50.00;;;27.70;;
9409;SDS011;4744;52.576;13.568;2023-02-15T06:49:20;46.50;;;26.20;;
9409;SDS011;4744;52.576;13.568;2023-02-15T06:51:47;45.80;;;25.77;;
9409;SDS011;4744;52.576;13.568;2023-02-15T06:54:15;47.07;;;27.50;;
9409;SDS011;4744;52.576;13.568;2023-02-15T06:56:42;56.60;;;26.53;;
9409;SDS011;4744;52.576;13.568;2023-02-15T06:59:09;42.03;;;25.60;;
9409;SDS011;4744;52.576;13.568;2023-02-15T07:01:36;73.23;;;41.57;;
9409;SDS011;4744;52.576;13.568;2023-02-15T07:04:03;54.03;;;29.17;;
9409;SDS011;4744;52.576;13.568;2023-02-15T07:06:31;61.77;;;33.50;;
9409;SDS011;4744;52.576;13.568;2023-02-15T07:08:58;48.38;;;26.88;;
9409;SDS011;4744;52.576;13.568;2023-02-15T07:11:26;45.17;;;25.87;;
9409;SDS011;4744;52.576;13.568;2023-02-15T07:14:11;47.33;;;26.40;;
9409;SDS011;4744;52.576;13.568;2023-02-15T07:16:38;42.30;;;24.67;;
9409;SDS011;4744;52.576;13.568;2023-02-15T07:19:05;46.40;;;28.02;;
9409;SDS011;4744;52.576;13.568;2023-02-15T07:21:33;44.33;;;25.07;;
9409;SDS011;4744;52.576;13.568;2023-02-15T07:24:00;45.40;;;25.37;;
9409;SDS011;4744;52.576;13.568;2023-02-15T07:26:28;45.67;;;25.33;;
9409;SDS011;4744;52.576;13.568;2023-02-15T07:28:57;46.63;;;26.77;;
9409;SDS011;4744;52.576;13.568;2023-02-15T07:31:24;44.93;;;25.60;;
9409;SDS011;4744;52.576;13.568;2023-02-15T07:33:50;40.70;;;24.43;;
9409;SDS011;4744;52.576;13.568;2023-02-15T07:36:17;42.60;;;24.43;;
9409;SDS011;4744;52.576;13.568;2023-02-15T07:38:44;40.47;;;23.43;;
9409;SDS011;4744;52.576;13.568;2023-02-15T07:41:12;41.10;;;24.77;;
9409;SDS011;4744;52.576;13.568;2023-02-15T07:43:42;43.20;;;24.23;;
9409;SDS011;4744;52.576;13.568;2023-02-15T07:46:11;41.03;;;23.87;;
9409;SDS011;4744;52.576;13.568;2023-02-15T07:48:39;37.43;;;22.43;;
9409;SDS011;4744;52.576;13.568;2023-02-15T07:51:08;42.83;;;24.67;;
9409;SDS011;4744;52.576;13.568;2023-02-15T07:53:36;41.70;;;24.43;;
9409;SDS011;4744;52.576;13.568;2023-02-15T07:56:04;49.00;;;24.80;;
9409;SDS011;4744;52.576;13.568;2023-02-15T07:58:33;44.00;;;22.87;;
9409;SDS011;4744;52.576;13.568;2023-02-15T08:01:22;46.40;;;24.10;;
9409;SDS011;4744;52.576;13.568;2023-02-15T08:03:51;39.20;;;22.37;;
9409;SDS011;4744;52.576;13.568;2023-02-15T08:06:18;38.77;;;22.27;;
9409;SDS011;4744;52.576;13.568;2023-02-15T08:08:45;39.87;;;22.67;;
9409;SDS011;4744;52.576;13.568;2023-02-15T08:11:17;35.13;;;22.60;;
9409;SDS011;4744;52.576;13.568;2023-02-15T08:14:02;68.40;;;41.17;;
9409;SDS011;4744;52.576;13.568;2023-02-15T08:16:34;40.80;;;23.80;;
9409;SDS011;4744;52.576;13.568;2023-02-15T08:19:02;49.47;;;23.97;;
9409;SDS011;4744;52.576;13.568;2023-02-15T08:21:31;45.80;;;26.53;;
9409;SDS011;4744;52.576;13.568;2023-02-15T08:23:59;39.93;;;23.10;;
9409;SDS011;4744;52.576;13.568;2023-02-15T08:26:27;42.10;;;23.60;;
9409;SDS011;4744;52.576;13.568;2023-02-15T08:28:55;40.03;;;22.17;;
9409;SDS011;4744;52.576;13.568;2023-02-15T08:31:24;36.50;;;21.93;;
9409;SDS011;4744;52.576;13.568;2023-02-15T08:33:54;41.47;;;23.20;;
9409;SDS011;4744;52.576;13.568;2023-02-15T08:36:22;41.43;;;23.50;;
9409;SDS011;4744;52.576;13.568;2023-02-15T08:38:50;45.53;;;24.17;;
9409;SDS011;4744;52.576;13.568;2023-02-15T08:41:19;47.10;;;26.20;;
9409;SDS011;4744;52.576;13.568;2023-02-15T08:43:48;47.83;;;25.83;;
9409;SDS011;4744;52.576;13.568;2023-02-15T08:46:17;47.43;;;25.00;;
9409;SDS011;4744;52.576;13.568;2023-02-15T08:48:44;48.53;;;25.60;;
9409;SDS011;4744;52.576;13.568;2023-02-15T08:51:14;47.43;;;25.77;;
9409;SDS011;4744;52.576;13.568;2023-02-15T08:53:43;42.87;;;24.00;;
9409;SDS011;4744;52.576;13.568;2023-02-15T08:56:11;41.53;;;22.90;;
9409;SDS011;4744;52.576;13.568;2023-02-15T08:58:38;38.67;;;23.30;;
9409;SDS011;4744;52.576;13.568;2023-02-15T09:01:08;49.20;;;25.23;;
9409;SDS011;4744;52.576;13.568;2023-02-15T09:03:36;45.47;;;24.23;;
9409;SDS011;4744;52.576;13.568;2023-02-15T09:06:04;47.40;;;22.73;;
9409;SDS011;4744;52.576;13.568;2023-02-15T09:08:33;40.83;;;23.73;;
9409;SDS011;4744;52.576;13.568;2023-02-15T09:11:09;46.87;;;23.80;;
9409;SDS011;4744;52.576;13.568;2023-02-15T09:13:38;44.33;;;22.00;;
9409;SDS011;4744;52.576;13.568;2023-02-15T09:16:06;45.17;;;24.57;;
9409;SDS011;4744;52.576;13.568;2023-02-15T09:18:35;50.67;;;25.73;;
9409;SDS011;4744;52.576;13.568;2023-02-15T09:21:04;51.93;;;26.30;;
9409;SDS011;4744;52.576;13.568;2023-02-15T09:23:34;48.27;;;25.30;;
9409;SDS011;4744;52.576;13.568;2023-02-15T09:26:02;48.57;;;25.17;;
9409;SDS011;4744;52.576;13.568;2023-02-15T09:28:30;44.57;;;24.33;;
9409;SDS011;4744;52.576;13.568;2023-02-15T09:31:04;51.03;;;25.35;;
9409;SDS011;4744;52.576;13.568;2023-02-15T09:33:33;51.03;;;26.07;;
9409;SDS011;4744;52.576;13.568;2023-02-15T09:36:01;54.57;;;26.40;;
9409;SDS011;4744;52.576;13.568;2023-02-15T09:38:28;55.10;;;26.57;;
9409;SDS011;4744;52.576;13.568;2023-02-15T09:41:00;55.58;;;26.35;;
9409;SDS011;4744;52.576;13.568;2023-02-15T09:43:37;54.50;;;25.50;;
9409;SDS011;4744;52.576;13.568;2023-02-15T09:46:18;54.05;;;27.17;;
9409;SDS011;4744;52.576;13.568;2023-02-15T09:48:59;55.55;;;27.13;;
9409;SDS011;4744;52.576;13.568;2023-02-15T09:51:37;49.95;;;25.52;;
9409;SDS011;4744;52.576;13.568;2023-02-15T09:54:21;55.60;;;26.38;;
9409;SDS011;4744;52.576;13.568;2023-02-15T09:56:58;57.53;;;27.23;;
9409;SDS011;4744;52.576;13.568;2023-02-15T09:59:33;52.33;;;25.77;;
9409;SDS011;4744;52.576;13.568;2023-02-15T10:02:20;52.65;;;26.45;;
9409;SDS011;4744;52.576;13.568;2023-02-15T10:05:00;45.08;;;24.48;;
9409;SDS011;4744;52.576;13.568;2023-02-15T10:07:45;48.13;;;25.17;;
9409;SDS011;4744;52.576;13.568;2023-02-15T10:10:30;48.35;;;25.80;;
9409;SDS011;4744;52.576;13.568;2023-02-15T10:13:10;44.83;;;25.90;;
9409;SDS011;4744;52.576;13.568;2023-02-15T10:15:53;43.63;;;24.23;;
9409;SDS011;4744;52.576;13.568;2023-02-15T10:18:39;46.95;;;25.63;;
9409;SDS011;4744;52.576;13.568;2023-02-15T10:21:30;45.95;;;25.08;;
9409;SDS011;4744;52.576;13.568;2023-02-15T10:24:10;45.72;;;24.83;;
9409;SDS011;4744;52.576;13.568;2023-02-15T10:26:58;47.55;;;25.10;;
9409;SDS011;4744;52.576;13.568;2023-02-15T10:29:34;46.38;;;25.85;;
9409;SDS011;4744;52.576;13.568;2023-02-15T10:32:05;44.97;;;25.05;;
9409;SDS011;4744;52.576;13.568;2023-02-15T10:34:43;43.35;;;25.30;;
9409;SDS011;4744;52.576;13.568;2023-02-15T10:40:20;48.20;;;25.00;;
9409;SDS011;4744;52.576;13.568;2023-02-15T10:42:59;46.40;;;25.88;;
9409;SDS011;4744;52.576;13.568;2023-02-15T10:45:43;42.60;;;24.85;;
9409;SDS011;4744;52.576;13.568;2023-02-15T10:48:23;44.70;;;25.48;;
9409;SDS011;4744;52.576;13.568;2023-02-15T10:51:02;42.45;;;24.27;;
9409;SDS011;4744;52.576;13.568;2023-02-15T10:53:43;45.85;;;24.98;;
9409;SDS011;4744;52.576;13.568;2023-02-15T10:56:23;41.90;;;24.65;;
9409;SDS011;4744;52.576;13.568;2023-02-15T10:58:58;42.58;;;25.00;;
9409;SDS011;4744;52.576;13.568;2023-02-15T11:01:45;36.50;;;22.60;;
9409;SDS011;4744;52.576;13.568;2023-02-15T11:04:26;39.80;;;24.17;;
9409;SDS011;4744;52.576;13.568;2023-02-15T11:07:18;40.40;;;24.73;;
9409;SDS011;4744;52.576;13.568;2023-02-15T11:09:49;37.92;;;23.52;;
9409;SDS011;4744;52.576;13.568;2023-02-15T11:12:21;37.55;;;24.58;;
9409;SDS011;4744;52.576;13.568;2023-02-15T11:14:52;37.97;;;22.75;;
9409;SDS011;4744;52.576;13.568;2023-02-15T11:17:26;35.63;;;23.02;;
9409;SDS011;4744;52.576;13.568;2023-02-15T11:20:02;35.83;;;23.27;;
9409;SDS011;4744;52.576;13.568;2023-02-15T11:22:35;32.67;;;22.30;;
9409;SDS011;4744;52.576;13.568;2023-02-15T11:25:10;31.77;;;21.35;;
9409;SDS011;4744;52.576;13.568;2023-02-15T11:27:43;35.80;;;22.67;;
9409;SDS011;4744;52.576;13.568;2023-02-15T11:30:13;31.88;;;21.45;;
9409;SDS011;4744;52.576;13.568;2023-02-15T11:32:43;30.58;;;20.25;;
9409;SDS011;4744;52.576;13.568;2023-02-15T11:35:19;30.63;;;20.75;;
9409;SDS011;4744;52.576;13.568;2023-02-15T11:37:54;30.80;;;19.90;;
9409;SDS011;4744;52.576;13.568;2023-02-15T11:40:26;27.83;;;20.65;;
9409;SDS011;4744;52.576;13.568;2023-02-15T11:42:55;31.52;;;19.83;;
9409;SDS011;4744;52.576;13.568;2023-02-15T11:45:26;29.67;;;18.85;;
9409;SDS011;4744;52.576;13.568;2023-02-15T11:47:56;30.85;;;20.48;;
9409;SDS011;4744;52.576;13.568;2023-02-15T11:50:25;26.77;;;18.30;;
9409;SDS011;4744;52.576;13.568;2023-02-15T11:52:56;26.85;;;20.10;;
9409;SDS011;4744;52.576;13.568;2023-02-15T11:55:25;26.00;;;18.83;;
9409;SDS011;4744;52.576;13.568;2023-02-15T11:57:55;24.83;;;18.33;;
9409;SDS011;4744;52.576;13.568;2023-02-15T12:00:31;26.70;;;19.42;;
9409;SDS011;4744;52.576;13.568;2023-02-15T12:03:03;25.05;;;17.80;;
9409;SDS011;4744;52.576;13.568;2023-02-15T12:05:39;27.30;;;18.73;;
9409;SDS011;4744;52.576;13.568;2023-02-15T12:08:16;26.85;;;18.58;;
9409;SDS011;4744;52.576;13.568;2023-02-15T12:10:50;24.95;;;18.17;;
9409;SDS011;4744;52.576;13.568;2023-02-15T12:13:24;25.50;;;17.83;;
9409;SDS011;4744;52.576;13.568;2023-02-15T12:15:52;22.98;;;16.70;;
9409;SDS011;4744;52.576;13.568;2023-02-15T12:18:31;24.33;;;17.95;;
9409;SDS011;4744;52.576;13.568;2023-02-15T12:21:03;22.35;;;16.60;;
9409;SDS011;4744;52.576;13.568;2023-02-15T12:23:39;21.50;;;16.00;;
9409;SDS011;4744;52.576;13.568;2023-02-15T12:26:09;21.38;;;16.17;;
9409;SDS011;4744;52.576;13.568;2023-02-15T12:28:38;21.40;;;16.45;;
9409;SDS011;4744;52.576;13.568;2023-02-15T12:31:09;21.02;;;16.05;;
9409;SDS011;4744;52.576;13.568;2023-02-15T12:33:48;19.98;;;15.23;;
9409;SDS011;4744;52.576;13.568;2023-02-15T12:36:19;20.77;;;14.90;;
9409;SDS011;4744;52.576;13.568;2023-02-15T12:39:02;24.45;;;15.75;;
9409;SDS011;4744;52.576;13.568;2023-02-15T12:41:31;22.63;;;15.38;;
9409;SDS011;4744;52.576;13.568;2023-02-15T12:44:06;21.60;;;15.73;;
9409;SDS011;4744;52.576;13.568;2023-02-15T12:46:41;20.48;;;15.63;;
9409;SDS011;4744;52.576;13.568;2023-02-15T12:49:14;20.70;;;15.48;;
9409;SDS011;4744;52.576;13.568;2023-02-15T12:51:45;22.85;;;15.52;;
9409;SDS011;4744;52.576;13.568;2023-02-15T12:54:17;18.45;;;14.68;;
9409;SDS011;4744;52.576;13.568;2023-02-15T12:57:12;18.33;;;14.48;;
9409;SDS011;4744;52.576;13.568;2023-02-15T12:59:52;17.92;;;13.80;;
9409;SDS011;4744;52.576;13.568;2023-02-15T13:02:21;19.05;;;13.48;;
9409;SDS011;4744;52.576;13.568;2023-02-15T13:04:53;17.77;;;12.85;;
9409;SDS011;4744;52.576;13.568;2023-02-15T13:07:21;17.67;;;12.93;;
9409;SDS011;4744;52.576;13.568;2023-02-15T13:09:49;20.85;;;15.75;;
9409;SDS011;4744;52.576;13.568;2023-02-15T13:12:18;19.55;;;15.45;;
9409;SDS011;4744;52.576;13.568;2023-02-15T13:14:48;17.05;;;13.73;;
9409;SDS011;4744;52.576;13.568;2023-02-15T13:17:17;19.25;;;15.73;;
9409;SDS011;4744;52.576;13.568;2023-02-15T13:19:49;20.02;;;15.63;;
9409;SDS011;4744;52.576;13.568;2023-02-15T13:22:21;21.05;;;15.05;;
9409;SDS011;4744;52.576;13.568;2023-02-15T13:27:51;19.42;;;15.25;;
9409;SDS011;4744;52.576;13.568;2023-02-15T13:30:22;20.52;;;14.95;;
9409;SDS011;4744;52.576;13.568;2023-02-15T13:36:23;17.90;;;13.60;;
9409;SDS011;4744;52.576;13.568;2023-02-15T13:38:59;15.68;;;12.95;;
9409;SDS011;4744;52.576;13.568;2023-02-15T13:41:43;20.30;;;14.25;;
9409;SDS011;4744;52.576;13.568;2023-02-15T13:44:19;19.25;;;14.93;;
9409;SDS011;4744;52.576;13.568;2023-02-15T13:47:01;17.20;;;13.70;;
9409;SDS011;4744;52.576;13.568;2023-02-15T13:49:43;18.30;;;14.32;;
9409;SDS011;4744;52.576;13.568;2023-02-15T13:52:22;15.88;;;12.88;;
9409;SDS011;4744;52.576;13.568;2023-02-15T13:54:56;17.50;;;13.13;;
9409;SDS011;4744;52.576;13.568;2023-02-15T13:57:39;13.60;;;11.50;;
9409;SDS011;4744;52.576;13.568;2023-02-15T14:00:20;15.57;;;12.05;;
9409;SDS011;4744;52.576;13.568;2023-02-15T14:03:05;14.50;;;11.32;;
9409;SDS011;4744;52.576;13.568;2023-02-15T14:06:15;13.55;;;10.57;;
9409;SDS011;4744;52.576;13.568;2023-02-15T14:09:01;14.40;;;11.65;;
9409;SDS011;4744;52.576;13.568;2023-02-15T14:11:40;13.60;;;11.55;;
9409;SDS011;4744;52.576;13.568;2023-02-15T14:17:13;14.65;;;11.85;;
9409;SDS011;4744;52.576;13.568;2023-02-15T14:19:48;13.25;;;10.25;;
9409;SDS011;4744;52.576;13.568;2023-02-15T14:22:22;13.05;;;10.65;;
9409;SDS011;4744;52.576;13.568;2023-02-15T14:24:59;13.10;;;10.88;;
9409;SDS011;4744;52.576;13.568;2023-02-15T14:27:42;13.38;;;10.85;;
9409;SDS011;4744;52.576;13.568;2023-02-15T14:30:20;15.63;;;11.20;;
9409;SDS011;4744;52.576;13.568;2023-02-15T14:32:49;15.02;;;11.88;;
9409;SDS011;4744;52.576;13.568;2023-02-15T14:35:20;13.75;;;11.70;;
9409;SDS011;4744;52.576;13.568;2023-02-15T14:37:50;14.80;;;12.35;;
9409;SDS011;4744;52.576;13.568;2023-02-15T14:40:28;12.48;;;10.63;;
9409;SDS011;4744;52.576;13.568;2023-02-15T14:43:21;15.73;;;12.43;;
9409;SDS011;4744;52.576;13.568;2023-02-15T14:45:58;13.85;;;12.07;;
9409;SDS011;4744;52.576;13.568;2023-02-15T14:48:30;12.90;;;10.93;;
9409;SDS011;4744;52.576;13.568;2023-02-15T14:50:59;13.07;;;11.10;;
9409;SDS011;4744;52.576;13.568;2023-02-15T14:53:33;12.88;;;10.80;;
9409;SDS011;4744;52.576;13.568;2023-02-15T14:56:18;13.02;;;10.18;;
9409;SDS011;4744;52.576;13.568;2023-02-15T14:58:59;13.18;;;10.88;;
9409;SDS011;4744;52.576;13.568;2023-02-15T15:01:39;14.23;;;11.20;;
9409;SDS011;4744;52.576;13.568;2023-02-15T15:04:07;14.98;;;12.18;;
9409;SDS011;4744;52.576;13.568;2023-02-15T15:06:39;12.88;;;10.57;;
9409;SDS011;4744;52.576;13.568;2023-02-15T15:09:11;13.80;;;11.10;;
9409;SDS011;4744;52.576;13.568;2023-02-15T15:11:45;12.63;;;10.23;;
9409;SDS011;4744;52.576;13.568;2023-02-15T15:14:37;11.15;;;9.07;;
9409;SDS011;4744;52.576;13.568;2023-02-15T15:17:10;17.02;;;13.65;;
9409;SDS011;4744;52.576;13.568;2023-02-15T15:22:38;16.33;;;13.10;;
9409;SDS011;4744;52.576;13.568;2023-02-15T15:25:10;15.75;;;13.10;;
9409;SDS011;4744;52.576;13.568;2023-02-15T15:28:00;17.90;;;13.98;;